Ningbo Seal — VRJD3 — position and weather

sailwx.info

Track history (hours):
 
Tides and Currents Weather Stations Pressure Air Temp Water Temp Dewpoint Dewpoint Depression Visibility Wind Speed Wind Dir Waves Ship Positions

Ningbo Seal

Last reported at 2017-Jan-31 13:26 UTC. Time now 2017-Mar-25 15:44 UTC.
Position S 02°01' W 044°04'.
Warning: this ship's position is 53 days out of date.

Length 224 m; draft 14.6 m.

Type: Cargo ship. MMSI: 477628100.

Date/timePositionNaut miles runAvg speedWind from/ knotsBaromVisibWave heightAir tempDewpointWater temp
2017-Jan-31 13:26S 02°01' W 044°04'8 9.5
2017-Jan-31 12:33S 02°08' W 044°08'0 0.5
2017-Jan-31 11:33S 02°09' W 044°08'0 0.0
2017-Jan-31 10:33S 02°09' W 044°08'0 0.0
2017-Jan-31 09:33S 02°09' W 044°08'0 0.0
2017-Jan-31 08:33S 02°09' W 044°08'0 0.0
2017-Jan-31 07:33S 02°09' W 044°08'0 0.0
2017-Jan-31 06:30S 02°09' W 044°08'0 0.3
2017-Jan-31 05:33S 02°09' W 044°08'0 0.1
2017-Jan-31 04:30S 02°09' W 044°08'0 0.0
2017-Jan-31 03:33S 02°09' W 044°08'0 0.3
2017-Jan-31 02:32S 02°09' W 044°08'6 5.7
2017-Jan-31 01:33S 02°13' W 044°12'1010.4
2017-Jan-31 00:33S 02°22' W 044°18'9 9.2
2017-Jan-30 23:33S 02°29' W 044°23'4 4.3
2017-Jan-30 22:33S 02°34' W 044°23'0 0.0
2017-Jan-30 21:33S 02°34' W 044°23'0 0.0
2017-Jan-30 20:32S 02°34' W 044°23'0 0.0
2017-Jan-30 19:33S 02°34' W 044°23'0 0.0
2017-Jan-30 18:33S 02°34' W 044°23'0 0.0
2017-Jan-30 17:32S 02°34' W 044°23'0 0.0
2017-Jan-30 16:32S 02°34' W 044°23'0 0.0
2017-Jan-30 15:32S 02°34' W 044°23'0 0.0
2017-Jan-30 14:29S 02°34' W 044°23'0 0.0
2017-Jan-30 13:32S 02°34' W 044°23'0 0.0
2017-Jan-30 12:32S 02°34' W 044°23'0 0.0
2017-Jan-30 11:32S 02°34' W 044°23'0 0.0
2017-Jan-30 09:32S 02°34' W 044°23'0 0.0
2017-Jan-30 08:32S 02°34' W 044°23'0 0.0
2017-Jan-30 07:32S 02°34' W 044°23'0 0.0
2017-Jan-30 06:32S 02°34' W 044°23'0 0.0
2017-Jan-30 05:32S 02°34' W 044°23'0 0.0
2017-Jan-30 04:32S 02°34' W 044°23'0 0.0
2017-Jan-30 03:32S 02°34' W 044°23'0 0.0
2017-Jan-30 02:32S 02°34' W 044°23'0 0.0
2017-Jan-30 01:32S 02°34' W 044°23'0 0.0
2017-Jan-30 00:32S 02°34' W 044°23'0 0.0
2017-Jan-29 23:32S 02°34' W 044°23'0 0.0
2017-Jan-29 22:32S 02°34' W 044°23'0 0.0
2017-Jan-29 21:32S 02°34' W 044°23'0 0.0
2017-Jan-29 20:33S 02°34' W 044°23'0 0.0
2017-Jan-29 19:32S 02°34' W 044°23'0 0.0
2017-Jan-29 18:32S 02°34' W 044°23'0 0.0
2017-Jan-29 17:33S 02°34' W 044°23'5 4.9
2017-Jan-29 16:33S 02°29' W 044°22'7 6.8
2017-Jan-29 15:33S 02°25' W 044°17'3 2.4
2017-Jan-29 14:31S 02°24' W 044°14'0 0.0
2017-Jan-29 13:31S 02°24' W 044°14'0 0.2
2017-Jan-29 12:31S 02°24' W 044°14'0 0.0
2017-Jan-29 11:31S 02°25' W 044°14'0 0.1
2017-Jan-29 10:31S 02°25' W 044°14'0 0.0
2017-Jan-29 09:31S 02°25' W 044°14'0 0.0
2017-Jan-29 08:31S 02°25' W 044°14'0 0.0
2017-Jan-29 07:31S 02°25' W 044°14'0 0.0
2017-Jan-29 06:31S 02°25' W 044°14'0 0.1
2017-Jan-29 05:31S 02°24' W 044°14'0 0.2
2017-Jan-29 04:31S 02°24' W 044°14'0 0.0
2017-Jan-29 03:31S 02°24' W 044°14'0 0.0
2017-Jan-29 02:31S 02°24' W 044°14'0 0.0
2017-Jan-29 01:31S 02°24' W 044°14'0 0.2
2017-Jan-29 00:31S 02°25' W 044°14'0 0.1
2017-Jan-28 23:31S 02°25' W 044°14'0 0.0
2017-Jan-28 22:31S 02°25' W 044°14'0 0.0
2017-Jan-28 21:31S 02°25' W 044°14'0 0.0
2017-Jan-28 20:31S 02°25' W 044°14'0 0.0
2017-Jan-28 19:31S 02°25' W 044°14'0 0.0
2017-Jan-28 18:31S 02°25' W 044°14'0 0.0
2017-Jan-28 17:31S 02°25' W 044°14'0 0.2
2017-Jan-28 16:31S 02°24' W 044°14'0 0.1
2017-Jan-28 15:31S 02°24' W 044°14'0 0.0
2017-Jan-28 14:31S 02°24' W 044°14'0 0.0
2017-Jan-28 13:31S 02°24' W 044°14'0 0.2
2017-Jan-28 12:31S 02°25' W 044°14'0 0.1
2017-Jan-28 11:31S 02°25' W 044°14'0 0.0
2017-Jan-28 10:31S 02°25' W 044°14'0 0.0
2017-Jan-28 09:31S 02°25' W 044°14'0 0.0
2017-Jan-28 08:31S 02°25' W 044°14'0 0.0
2017-Jan-28 07:31S 02°25' W 044°14'0 0.0
2017-Jan-28 06:31S 02°25' W 044°14'0 0.0
2017-Jan-28 05:31S 02°25' W 044°14'0 0.2
2017-Jan-28 04:31S 02°24' W 044°14'0 0.1
2017-Jan-28 03:31S 02°24' W 044°14'0 0.0
2017-Jan-28 02:31S 02°24' W 044°14'0 0.0
2017-Jan-28 01:31S 02°24' W 044°14'0 0.0
2017-Jan-28 00:31S 02°24' W 044°14'0 0.2
2017-Jan-27 23:31S 02°25' W 044°14'0 0.0
2017-Jan-27 22:31S 02°25' W 044°14'0 0.0
2017-Jan-27 21:31S 02°25' W 044°14'0 0.0
2017-Jan-27 20:31S 02°25' W 044°14'0 0.0
2017-Jan-27 19:31S 02°25' W 044°14'0 0.0
2017-Jan-27 18:31S 02°25' W 044°14'0 0.0
2017-Jan-27 17:31S 02°25' W 044°14'0 0.0
2017-Jan-27 16:28S 02°25' W 044°14'0 0.2
2017-Jan-27 15:31S 02°24' W 044°14'0 0.0
2017-Jan-27 14:31S 02°24' W 044°14'0 0.1
2017-Jan-27 13:31S 02°24' W 044°14'0 0.1
2017-Jan-27 11:31S 02°25' W 044°14'0 0.0
2017-Jan-27 10:31S 02°25' W 044°14'0 0.0
2017-Jan-27 09:31S 02°25' W 044°14'0 0.0
2017-Jan-27 08:31S 02°25' W 044°14'0 0.0
2017-Jan-27 07:31S 02°25' W 044°14'0 0.0
2017-Jan-27 06:31S 02°25' W 044°14'0 0.0
2017-Jan-27 05:31S 02°25' W 044°14'0 0.0
2017-Jan-27 04:31S 02°25' W 044°14'0 0.2
2017-Jan-27 03:31S 02°24' W 044°14'0 0.1
2017-Jan-27 02:33S 02°24' W 044°14'0 0.0
2017-Jan-27 01:31S 02°24' W 044°14'0 0.1
2017-Jan-27 00:31S 02°24' W 044°14'0 0.1
2017-Jan-26 23:31S 02°24' W 044°14'0 0.2
2017-Jan-26 22:31S 02°25' W 044°14'0 0.0
2017-Jan-26 21:31S 02°25' W 044°14'0 0.0
2017-Jan-26 20:31S 02°25' W 044°14'0 0.0
2017-Jan-26 19:31S 02°25' W 044°14'0 0.0
2017-Jan-26 18:31S 02°25' W 044°14'0 0.0
2017-Jan-26 17:31S 02°25' W 044°14'4 3.7
2017-Jan-26 16:33S 02°22' W 044°17'8 7.8
2017-Jan-26 15:33S 02°15' W 044°15'7 7.4
2017-Jan-26 14:33S 02°09' W 044°11'6 6.3
2017-Jan-26 13:33S 02°04' W 044°07'  
Track history (hours):
 
Tides and Currents Weather Stations Pressure Air Temp Water Temp Dewpoint Dewpoint Depression Visibility Wind Speed Wind Dir Waves Ship Positions

Ningbo Seal

Last reported at 2017-Jan-31 13:26 UTC. Time now 2017-Mar-25 15:44 UTC.
Position S 02°01' W 044°04'.
Warning: this ship's position is 53 days out of date.

Length 224 m; draft 14.6 m.

Type: Cargo ship. MMSI: 477628100.

Date/timePositionNaut miles runAvg speedWind from/ knotsBaromVisibWave heightAir tempDewpointWater temp
2017-Jan-31 13:26S 02°01' W 044°04'8 9.5
2017-Jan-31 12:33S 02°08' W 044°08'0 0.5
2017-Jan-31 11:33S 02°09' W 044°08'0 0.0
2017-Jan-31 10:33S 02°09' W 044°08'0 0.0
2017-Jan-31 09:33S 02°09' W 044°08'0 0.0
2017-Jan-31 08:33S 02°09' W 044°08'0 0.0
2017-Jan-31 07:33S 02°09' W 044°08'0 0.0
2017-Jan-31 06:30S 02°09' W 044°08'0 0.3
2017-Jan-31 05:33S 02°09' W 044°08'0 0.1
2017-Jan-31 04:30S 02°09' W 044°08'0 0.0
2017-Jan-31 03:33S 02°09' W 044°08'0 0.3
2017-Jan-31 02:32S 02°09' W 044°08'6 5.7
2017-Jan-31 01:33S 02°13' W 044°12'1010.4
2017-Jan-31 00:33S 02°22' W 044°18'9 9.2
2017-Jan-30 23:33S 02°29' W 044°23'4 4.3
2017-Jan-30 22:33S 02°34' W 044°23'0 0.0
2017-Jan-30 21:33S 02°34' W 044°23'0 0.0
2017-Jan-30 20:32S 02°34' W 044°23'0 0.0
2017-Jan-30 19:33S 02°34' W 044°23'0 0.0
2017-Jan-30 18:33S 02°34' W 044°23'0 0.0
2017-Jan-30 17:32S 02°34' W 044°23'0 0.0
2017-Jan-30 16:32S 02°34' W 044°23'0 0.0
2017-Jan-30 15:32S 02°34' W 044°23'0 0.0
2017-Jan-30 14:29S 02°34' W 044°23'0 0.0
2017-Jan-30 13:32S 02°34' W 044°23'0 0.0
2017-Jan-30 12:32S 02°34' W 044°23'0 0.0
2017-Jan-30 11:32S 02°34' W 044°23'0 0.0
2017-Jan-30 09:32S 02°34' W 044°23'0 0.0
2017-Jan-30 08:32S 02°34' W 044°23'0 0.0
2017-Jan-30 07:32S 02°34' W 044°23'0 0.0
2017-Jan-30 06:32S 02°34' W 044°23'0 0.0
2017-Jan-30 05:32S 02°34' W 044°23'0 0.0
2017-Jan-30 04:32S 02°34' W 044°23'0 0.0
2017-Jan-30 03:32S 02°34' W 044°23'0 0.0
2017-Jan-30 02:32S 02°34' W 044°23'0 0.0
2017-Jan-30 01:32S 02°34' W 044°23'0 0.0
2017-Jan-30 00:32S 02°34' W 044°23'0 0.0
2017-Jan-29 23:32S 02°34' W 044°23'0 0.0
2017-Jan-29 22:32S 02°34' W 044°23'0 0.0
2017-Jan-29 21:32S 02°34' W 044°23'0 0.0
2017-Jan-29 20:33S 02°34' W 044°23'0 0.0
2017-Jan-29 19:32S 02°34' W 044°23'0 0.0
2017-Jan-29 18:32S 02°34' W 044°23'0 0.0
2017-Jan-29 17:33S 02°34' W 044°23'5 4.9
2017-Jan-29 16:33S 02°29' W 044°22'7 6.8
2017-Jan-29 15:33S 02°25' W 044°17'3 2.4
2017-Jan-29 14:31S 02°24' W 044°14'0 0.0
2017-Jan-29 13:31S 02°24' W 044°14'0 0.2
2017-Jan-29 12:31S 02°24' W 044°14'0 0.0
2017-Jan-29 11:31S 02°25' W 044°14'0 0.1
2017-Jan-29 10:31S 02°25' W 044°14'0 0.0
2017-Jan-29 09:31S 02°25' W 044°14'0 0.0
2017-Jan-29 08:31S 02°25' W 044°14'0 0.0
2017-Jan-29 07:31S 02°25' W 044°14'0 0.0
2017-Jan-29 06:31S 02°25' W 044°14'0 0.1
2017-Jan-29 05:31S 02°24' W 044°14'0 0.2
2017-Jan-29 04:31S 02°24' W 044°14'0 0.0
2017-Jan-29 03:31S 02°24' W 044°14'0 0.0
2017-Jan-29 02:31S 02°24' W 044°14'0 0.0
2017-Jan-29 01:31S 02°24' W 044°14'0 0.2
2017-Jan-29 00:31S 02°25' W 044°14'0 0.1
2017-Jan-28 23:31S 02°25' W 044°14'0 0.0
2017-Jan-28 22:31S 02°25' W 044°14'0 0.0
2017-Jan-28 21:31S 02°25' W 044°14'0 0.0
2017-Jan-28 20:31S 02°25' W 044°14'0 0.0
2017-Jan-28 19:31S 02°25' W 044°14'0 0.0
2017-Jan-28 18:31S 02°25' W 044°14'0 0.0
2017-Jan-28 17:31S 02°25' W 044°14'0 0.2
2017-Jan-28 16:31S 02°24' W 044°14'0 0.1
2017-Jan-28 15:31S 02°24' W 044°14'0 0.0
2017-Jan-28 14:31S 02°24' W 044°14'0 0.0
2017-Jan-28 13:31S 02°24' W 044°14'0 0.2
2017-Jan-28 12:31S 02°25' W 044°14'0 0.1
2017-Jan-28 11:31S 02°25' W 044°14'0 0.0
2017-Jan-28 10:31S 02°25' W 044°14'0 0.0
2017-Jan-28 09:31S 02°25' W 044°14'0 0.0
2017-Jan-28 08:31S 02°25' W 044°14'0 0.0
2017-Jan-28 07:31S 02°25' W 044°14'0 0.0
2017-Jan-28 06:31S 02°25' W 044°14'0 0.0
2017-Jan-28 05:31S 02°25' W 044°14'0 0.2
2017-Jan-28 04:31S 02°24' W 044°14'0 0.1
2017-Jan-28 03:31S 02°24' W 044°14'0 0.0
2017-Jan-28 02:31S 02°24' W 044°14'0 0.0
2017-Jan-28 01:31S 02°24' W 044°14'0 0.0
2017-Jan-28 00:31S 02°24' W 044°14'0 0.2
2017-Jan-27 23:31S 02°25' W 044°14'0 0.0
2017-Jan-27 22:31S 02°25' W 044°14'0 0.0
2017-Jan-27 21:31S 02°25' W 044°14'0 0.0
2017-Jan-27 20:31S 02°25' W 044°14'0 0.0
2017-Jan-27 19:31S 02°25' W 044°14'0 0.0
2017-Jan-27 18:31S 02°25' W 044°14'0 0.0
2017-Jan-27 17:31S 02°25' W 044°14'0 0.0
2017-Jan-27 16:28S 02°25' W 044°14'0 0.2
2017-Jan-27 15:31S 02°24' W 044°14'0 0.0
2017-Jan-27 14:31S 02°24' W 044°14'0 0.1
2017-Jan-27 13:31S 02°24' W 044°14'0 0.1
2017-Jan-27 11:31S 02°25' W 044°14'0 0.0
2017-Jan-27 10:31S 02°25' W 044°14'0 0.0
2017-Jan-27 09:31S 02°25' W 044°14'0 0.0
2017-Jan-27 08:31S 02°25' W 044°14'0 0.0
2017-Jan-27 07:31S 02°25' W 044°14'0 0.0
2017-Jan-27 06:31S 02°25' W 044°14'0 0.0
2017-Jan-27 05:31S 02°25' W 044°14'0 0.0
2017-Jan-27 04:31S 02°25' W 044°14'0 0.2
2017-Jan-27 03:31S 02°24' W 044°14'0 0.1
2017-Jan-27 02:33S 02°24' W 044°14'0 0.0
2017-Jan-27 01:31S 02°24' W 044°14'0 0.1
2017-Jan-27 00:31S 02°24' W 044°14'0 0.1
2017-Jan-26 23:31S 02°24' W 044°14'0 0.2
2017-Jan-26 22:31S 02°25' W 044°14'0 0.0
2017-Jan-26 21:31S 02°25' W 044°14'0 0.0
2017-Jan-26 20:31S 02°25' W 044°14'0 0.0
2017-Jan-26 19:31S 02°25' W 044°14'0 0.0
2017-Jan-26 18:31S 02°25' W 044°14'0 0.0
2017-Jan-26 17:31S 02°25' W 044°14'4 3.7
2017-Jan-26 16:33S 02°22' W 044°17'8 7.8
2017-Jan-26 15:33S 02°15' W 044°15'7 7.4
2017-Jan-26 14:33S 02°09' W 044°11'6 6.3
2017-Jan-26 13:33S 02°04' W 044°07'  

Dump ship's entire track history